• Join FlightAware (Why Join?)
  • Login
  • US Flag 
03:06PM EST


 

Airport Tracker/Info


-or-


 

Live Flight TrackerFlight Track Log ✈ EJM685 ✈ 25-Nov-2013 ✈ KTEB - TNCM / SXM

Flight Track Log - Related Links

Times and Time Zones

All times are in EST time to prevent confusion due to time zone crossing. See the EJM685 flight status page for this flight to view local times or setup timezone preferences in your user account.

Time Position Orientation Groundspeed Altitude Reporting Facility
EST Latitude Longitude Course Direction KTS MPH feet Rate Location/Type
09:49AM 40.8167 -74.1167 255° West 183 211 1,500  Level New York TRACON
09:50AM 40.8000 -74.2000 255° West 227 261 3,900 2,220 Climbing New York TRACON
09:51AM 40.7333 -74.2167 191° South 264 304 6,000 1,020 Climbing New York TRACON
09:52AM 40.6667 -74.2500 201° Southwest 265 305 6,000  Level New York TRACON
09:53AM 40.6000 -74.2667 191° South 267 307 6,000  Level New York TRACON
09:54AM 40.5167 -74.2667 180° South 279 321 6,000  Level New York TRACON
09:55AM 40.4500 -74.2333 159° South 280 322 6,000  Level New York TRACON
09:56AM 40.3833 -74.2000 159° South 278 320 6,000 180 Level New York TRACON
09:56AM 40.3272 -74.1658 155° Southeast 284 327 6,300 2,280 Climbing New York Center
09:57AM 40.2503 -74.1647 179° South 300 345 9,800 2,940 Climbing New York Center
09:58AM 40.1564 -74.1656 180° South 325 374 12,200 2,400 Climbing New York Center
09:59AM 40.0772 -74.0914 144° Southeast 357 411 14,700 1,380 Climbing New York Center
10:00AM 40.0311 -73.9536 114° Southeast 376 433 15,000 1,200 Climbing New York Center
10:01AM 39.9831 -73.7997 112° Southeast 407 468 17,100 1,980 Climbing New York Center
10:02AM 39.9172 -73.6831 126° Southeast 432 497 19,000 1,920 Climbing New York Center
10:03AM 39.8433 -73.5528 126° Southeast 439 505 21,000 1,800 Climbing New York Center
10:04AM 39.7631 -73.4172 128° Southeast 454 522 22,600 1,140 Climbing New York Center
10:05AM 39.6828 -73.2822 128° Southeast 464 534 23,300 1,440 Climbing New York Center
10:06AM 39.6000 -73.1444 128° Southeast 477 549 25,500 2,160 Climbing New York Center
10:07AM 39.5133 -72.9989 128° Southeast 490 564 27,700 2,160 Climbing New York Center
10:08AM 39.4244 -72.8508 128° Southeast 508 585 29,900 2,280 Climbing New York Center
10:09AM 39.3311 -72.6978 128° Southeast 527 606 32,300 1,980 Climbing New York Center
10:10AM 39.2375 -72.5478 129° Southeast 527 606 34,000 1,140 Climbing New York Center
10:11AM 39.1439 -72.3928 128° Southeast 539 620 34,600 900 Climbing New York Center
10:12AM 39.0503 -72.2356 127° Southeast 545 627 35,900 1,800 Climbing New York Center
10:13AM 38.9519 -72.0814 129° Southeast 550 633 38,200 2,280 Climbing New York Center
10:14AM 38.8578 -71.9303 129° Southeast 550 633 40,500 1,800 Climbing New York Center
10:15AM 38.7672 -71.7822 128° Southeast 544 626 41,900 1,260 Climbing New York Center
10:16AM 38.6769 -71.6347 128° Southeast 538 619 43,100 900 Climbing New York Center
10:17AM 38.5819 -71.4953 131° Southeast 533 613 43,800 600 Climbing New York Center
10:18AM 38.4911 -71.3431 127° Southeast 533 613 44,400 540 Climbing New York Center
10:19AM 38.3978 -71.1967 129° Southeast 538 619 45,000 300 Climbing New York Center
10:20AM 38.3025 -71.0558 131° Southeast 531 611 45,000  Level New York Center
10:21AM 38.2108 -70.9100 129° Southeast 531 611 45,000  Level New York Center
10:22AM 38.1172 -70.7672 130° Southeast 531 611 45,000  Level New York Center
10:23AM 38.0214 -70.6247 130° Southeast 531 611 45,000  Level New York Center
10:24AM 37.9044 -70.5222 145° Southeast 516 594 45,000  Level New York Center
10:25AM 37.7811 -70.4358 151° Southeast 511 588 45,000  Level New York Center
10:27AM 38.0000 -70.5833 153° Southeast 526 605 45,000  Level New York Oceanic (ODAPS)
10:33AM 36.6916 -69.7683 154° Southeast 526 605 45,000  Level FlightAware Transoceanic
10:34AM 36.5604 -69.6883 154° Southeast 526 605 45,000  Level FlightAware Transoceanic
10:35AM 36.4292 -69.6086 154° Southeast 526 605 45,000  Level FlightAware Transoceanic
10:36AM 36.2980 -69.5292 154° Southeast 526 605 45,000  Level FlightAware Transoceanic
10:37AM 36.1667 -69.4500 168° South 526 605 45,000  Level FlightAware Transoceanic
10:38AM 36.0307 -69.4133 168° South 526 605 45,000  Level FlightAware Transoceanic
10:39AM 35.8946 -69.3767 168° South 526 605 45,000  Level FlightAware Transoceanic
10:39AM 36.1667 -69.4500 168° South 486 559 45,000  Level New York Oceanic (ODAPS)
10:40AM 35.7586 -69.3402 168° South 526 605 45,000  Level FlightAware Transoceanic
10:41AM 35.6225 -69.3038 168° South 526 605 45,000  Level FlightAware Transoceanic
10:42AM 35.4865 -69.2676 168° South 526 605 45,000  Level FlightAware Transoceanic
10:43AM 35.3504 -69.2315 168° South 526 605 45,000  Level FlightAware Transoceanic
10:44AM 35.2143 -69.1955 168° South 526 605 45,000  Level FlightAware Transoceanic
10:45AM 35.1085 -69.1676 168° South 486 559 45,000  Level FlightAware Transoceanic
10:46AM 34.9762 -69.1328 168° South 486 559 45,000  Level FlightAware Transoceanic
10:47AM 34.8438 -69.0982 168° South 486 559 45,000  Level FlightAware Transoceanic
10:48AM 34.7115 -69.0636 168° South 486 559 45,000  Level FlightAware Transoceanic
10:49AM 34.5791 -69.0291 168° South 486 559 45,000  Level FlightAware Transoceanic
10:50AM 34.4468 -68.9948 168° South 486 559 45,000  Level FlightAware Transoceanic
10:51AM 34.3144 -68.9606 168° South 486 559 45,000  Level FlightAware Transoceanic
10:52AM 34.1820 -68.9265 168° South 486 559 45,000  Level FlightAware Transoceanic
10:53AM 34.0496 -68.8924 168° South 486 559 45,000  Level FlightAware Transoceanic
10:54AM 33.9172 -68.8585 168° South 486 559 45,000  Level FlightAware Transoceanic
10:55AM 33.7848 -68.8247 168° South 486 559 45,000  Level FlightAware Transoceanic
10:56AM 33.6524 -68.7910 168° South 486 559 45,000  Level FlightAware Transoceanic
10:57AM 33.5200 -68.7574 168° South 486 559 45,000  Level FlightAware Transoceanic
10:58AM 33.3876 -68.7239 168° South 486 559 45,000  Level FlightAware Transoceanic
10:59AM 33.2551 -68.6906 168° South 486 559 45,000  Level FlightAware Transoceanic
11:00AM 33.1227 -68.6573 168° South 486 559 45,000  Level FlightAware Transoceanic
11:01AM 32.9902 -68.6241 168° South 486 559 45,000  Level FlightAware Transoceanic
11:02AM 32.8577 -68.5910 168° South 486 559 45,000  Level FlightAware Transoceanic
11:03AM 32.7253 -68.5580 168° South 486 559 45,000  Level FlightAware Transoceanic
11:04AM 32.5928 -68.5251 168° South 486 559 45,000  Level FlightAware Transoceanic
11:05AM 32.4603 -68.4923 168° South 486 559 45,000  Level FlightAware Transoceanic
11:06AM 32.3278 -68.4596 168° South 486 559 45,000  Level FlightAware Transoceanic
11:07AM 32.1953 -68.4270 168° South 486 559 45,000  Level FlightAware Transoceanic
11:08AM 32.0627 -68.3945 168° South 486 559 45,000  Level FlightAware Transoceanic
11:09AM 31.9302 -68.3621 168° South 486 559 45,000  Level FlightAware Transoceanic
11:10AM 31.7977 -68.3298 168° South 486 559 45,000  Level FlightAware Transoceanic
11:11AM 31.6651 -68.2975 168° South 486 559 45,000  Level FlightAware Transoceanic
11:12AM 31.5326 -68.2654 168° South 486 559 45,000  Level FlightAware Transoceanic
11:13AM 31.4000 -68.2333 168° South 486 559 45,000  Level FlightAware Transoceanic
11:14AM 31.2645 -68.2007 168° South 486 559 45,000  Level FlightAware Transoceanic
11:15AM 31.1290 -68.1682 168° South 486 559 45,000  Level FlightAware Transoceanic
11:16AM 30.9934 -68.1357 168° South 486 559 45,000  Level FlightAware Transoceanic
11:17AM 30.8579 -68.1034 168° South 486 559 45,000  Level FlightAware Transoceanic
11:18AM 30.7223 -68.0711 168° South 486 559 45,000  Level FlightAware Transoceanic
11:19AM 30.5868 -68.0390 168° South 486 559 45,000  Level FlightAware Transoceanic
11:20AM 30.4512 -68.0069 168° South 486 559 45,000  Level FlightAware Transoceanic
11:21AM 30.3157 -67.9749 169° South 486 559 45,000  Level FlightAware Transoceanic
11:22AM 30.1801 -67.9430 169° South 486 559 45,000  Level FlightAware Transoceanic
11:23AM 30.0445 -67.9112 169° South 486 559 45,000  Level FlightAware Transoceanic
11:24AM 29.9089 -67.8795 169° South 486 559 45,000  Level FlightAware Transoceanic
11:25AM 29.7733 -67.8478 169° South 486 559 45,000  Level FlightAware Transoceanic
11:26AM 29.6377 -67.8163 169° South 486 559 45,000  Level FlightAware Transoceanic
11:27AM 29.5021 -67.7848 169° South 486 559 45,000  Level FlightAware Transoceanic
11:28AM 29.3664 -67.7534 169° South 486 559 45,000  Level FlightAware Transoceanic
11:29AM 29.2308 -67.7222 169° South 486 559 45,000  Level FlightAware Transoceanic
11:30AM 29.0952 -67.6909 169° South 486 559 45,000  Level FlightAware Transoceanic
11:31AM 28.9595 -67.6598 169° South 486 559 45,000  Level FlightAware Transoceanic
11:32AM 28.8239 -67.6288 169° South 486 559 45,000  Level FlightAware Transoceanic
11:33AM 28.6882 -67.5978 169° South 486 559 45,000  Level FlightAware Transoceanic
11:34AM 28.5526 -67.5669 169° South 486 559 45,000  Level FlightAware Transoceanic
11:35AM 28.4169 -67.5361 169° South 486 559 45,000  Level FlightAware Transoceanic
11:36AM 28.2812 -67.5053 169° South 486 559 45,000  Level FlightAware Transoceanic
11:37AM 28.1455 -67.4747 169° South 486 559 45,000  Level FlightAware Transoceanic
11:38AM 28.0098 -67.4441 169° South 486 559 45,000  Level FlightAware Transoceanic
11:39AM 27.8741 -67.4136 169° South 486 559 45,000  Level FlightAware Transoceanic
11:40AM 27.7384 -67.3832 169° South 486 559 45,000  Level FlightAware Transoceanic
11:41AM 27.6027 -67.3529 169° South 486 559 45,000  Level FlightAware Transoceanic
11:42AM 27.4670 -67.3226 169° South 486 559 45,000  Level FlightAware Transoceanic
11:43AM 27.3312 -67.2924 169° South 486 559 45,000  Level FlightAware Transoceanic
11:44AM 27.1955 -67.2623 169° South 486 559 45,000  Level FlightAware Transoceanic
11:45AM 27.0598 -67.2322 169° South 486 559 45,000  Level FlightAware Transoceanic
11:46AM 26.9240 -67.2022 169° South 486 559 45,000  Level FlightAware Transoceanic
11:47AM 26.7883 -67.1723 169° South 486 559 45,000  Level FlightAware Transoceanic
11:47AM 27.0833 -67.2500 169° South 506 582 45,000  Level New York Oceanic (ODAPS)
11:48AM 26.6525 -67.1425 169° South 486 559 45,000  Level FlightAware Transoceanic
11:49AM 26.5168 -67.1127 169° South 486 559 45,000  Level FlightAware Transoceanic
11:50AM 26.3810 -67.0830 169° South 486 559 45,000  Level FlightAware Transoceanic
11:51AM 26.2452 -67.0534 169° South 486 559 45,000  Level FlightAware Transoceanic
11:52AM 26.1094 -67.0238 169° South 486 559 45,000  Level FlightAware Transoceanic
11:53AM 25.9921 -67.0081 169° South 506 582 45,000  Level FlightAware Transoceanic
11:54AM 25.8557 -66.9782 169° South 506 582 45,000  Level FlightAware Transoceanic
11:55AM 25.7192 -66.9484 169° South 506 582 45,000  Level FlightAware Transoceanic
11:56AM 25.5828 -66.9186 169° South 506 582 45,000  Level FlightAware Transoceanic
11:57AM 25.4464 -66.8889 169° South 506 582 45,000  Level FlightAware Transoceanic
11:58AM 25.3099 -66.8593 169° South 506 582 45,000  Level FlightAware Transoceanic
11:59AM 25.1734 -66.8297 169° South 506 582 45,000  Level FlightAware Transoceanic
12:00PM 25.0370 -66.8002 169° South 506 582 45,000  Level FlightAware Transoceanic
12:01PM 24.9005 -66.7707 169° South 506 582 45,000  Level FlightAware Transoceanic
12:02PM 24.7640 -66.7414 169° South 506 582 45,000  Level FlightAware Transoceanic
12:03PM 24.6275 -66.7121 169° South 506 582 45,000  Level FlightAware Transoceanic
12:04PM 24.4911 -66.6828 169° South 506 582 45,000  Level FlightAware Transoceanic
12:05PM 24.3546 -66.6536 169° South 506 582 45,000  Level FlightAware Transoceanic
12:06PM 24.2181 -66.6245 169° South 506 582 45,000  Level FlightAware Transoceanic
12:07PM 24.0816 -66.5954 169° South 506 582 45,000  Level FlightAware Transoceanic
12:08PM 23.9450 -66.5664 169° South 506 582 45,000  Level FlightAware Transoceanic
12:09PM 23.8085 -66.5375 169° South 506 582 45,000  Level FlightAware Transoceanic
12:10PM 23.6720 -66.5086 169° South 506 582 45,000  Level FlightAware Transoceanic
12:11PM 23.5355 -66.4798 169° South 506 582 45,000  Level FlightAware Transoceanic
12:12PM 23.3989 -66.4510 169° South 506 582 45,000  Level FlightAware Transoceanic
12:13PM 23.2624 -66.4223 169° South 506 582 45,000  Level FlightAware Transoceanic
12:14PM 23.1259 -66.3937 169° South 506 582 45,000  Level FlightAware Transoceanic
12:15PM 22.9893 -66.3651 169° South 506 582 45,000  Level FlightAware Transoceanic
12:16PM 22.8528 -66.3366 169° South 506 582 45,000  Level FlightAware Transoceanic
12:17PM 22.7162 -66.3082 169° South 506 582 45,000  Level FlightAware Transoceanic
12:17PM 22.9167 -66.3500 169° South 465 535 45,000  Level New York Oceanic (ODAPS)
12:18PM 22.5796 -66.2797 169° South 506 582 45,000  Level FlightAware Transoceanic
12:19PM 22.4431 -66.2514 169° South 506 582 45,000  Level FlightAware Transoceanic
12:19PM 22.4667 -66.2500 169° South 480 552 45,000  Level San Juan Center
12:20PM 22.3065 -66.2231 169° South 506 582 45,000  Level FlightAware Transoceanic
12:20PM 22.3500 -66.2333 172° South 450 518 45,000  Level San Juan Center
12:21PM 22.1699 -66.1948 169° South 506 582 45,000  Level FlightAware Transoceanic
12:21PM 22.1833 -66.2000 170° South 450 518 45,000  Level San Juan Center
12:22PM 22.0333 -66.1667 169° South 506 582 45,000  Level FlightAware Transoceanic
12:23PM 21.8917 -66.1374 169° South 465 535 45,000  Level FlightAware Transoceanic
12:23PM 22.0469 -66.0947 144° Southeast  Level Estimated
12:23PM 21.9167 -66.1333 144° Southeast 490 564 45,000  Level San Juan Center
12:24PM 21.7500 -66.1082 169° South 465 535 45,000  Level FlightAware Transoceanic
12:24PM 21.7833 -66.1167 173° South 450 518 45,000  Level San Juan Center
12:25PM 21.6083 -66.0791 169° South 465 535 45,000  Level FlightAware Transoceanic
12:25PM 21.6500 -66.0833 167° South 500 575 45,000  Level San Juan Center
12:26PM 21.5333 -65.9667 137° Southeast 520 598 45,000  Level San Juan Center
12:27PM 21.4167 -65.9000 152° Southeast 480 552 45,000  Level San Juan Center
12:28PM 21.3000 -65.8167 146° Southeast 490 564 45,000  Level San Juan Center
12:29PM 21.2000 -65.7333 142° Southeast 500 575 45,000  Level San Juan Center
12:30PM 21.0833 -65.6500 146° Southeast 490 564 45,000  Level San Juan Center
12:31PM 20.9667 -65.5667 146° Southeast 460 529 45,000  Level San Juan Center
12:32PM 20.8667 -65.4833 142° Southeast 490 564 45,000  Level San Juan Center
12:33PM 20.7500 -65.4000 146° Southeast 490 564 45,000  Level San Juan Center
12:34PM 20.6500 -65.3167 142° Southeast 490 564 45,000 -300 Level San Juan Center
12:35PM 20.5333 -65.2333 146° Southeast 490 564 44,400 -1,200 Descending San Juan Center
12:36PM 20.4167 -65.1500 146° Southeast 490 564 42,700 -1,740 Descending San Juan Center
12:37PM 20.3000 -65.0667 146° Southeast 490 564 41,000 -1,620 Descending San Juan Center
12:38PM 20.2000 -64.9833 142° Southeast 490 564 39,500 -1,740 Descending San Juan Center
12:39PM 20.0833 -64.9000 146° Southeast 480 552 37,600 -1,860 Descending San Juan Center
12:40PM 19.9667 -64.8167 146° Southeast 480 552 35,800 -1,980 Descending San Juan Center
12:41PM 19.8667 -64.7333 142° Southeast 490 564 33,700 -1,920 Descending San Juan Center
12:42PM 19.7500 -64.6500 146° Southeast 490 564 32,000 -1,800 Descending San Juan Center
12:43PM 19.6333 -64.5667 146° Southeast 500 575 30,200 -1,680 Descending San Juan Center
12:44PM 19.5167 -64.4833 146° Southeast 490 564 28,700 -1,740 Descending San Juan Center
12:45PM 19.4000 -64.4000 146° Southeast 480 552 26,800 -1,800 Descending San Juan Center
12:46PM 19.3000 -64.3333 148° Southeast 470 541 25,100 -1,620 Descending San Juan Center
12:47PM 19.2000 -64.2500 142° Southeast 450 518 23,600 -1,500 Descending San Juan Center
12:48PM 19.1000 -64.1833 148° Southeast 430 495 22,100 -1,500 Descending San Juan Center
12:49PM 19.0000 -64.1000 142° Southeast 420 483 20,600 -1,500 Descending San Juan Center
12:50PM 18.9000 -64.0333 148° Southeast 410 472 19,100 -1,500 Descending San Juan Center
12:51PM 18.8167 -63.9667 143° Southeast 400 460 17,700 -1,440 Descending San Juan Center
12:52PM 18.7167 -63.9000 148° Southeast 390 449 16,300 -1,320 Descending San Juan Center
12:53PM 18.6333 -63.8500 150° Southeast 370 426 15,100 -1,260 Descending San Juan Center
12:54PM 18.5667 -63.8000 145° Southeast 340 391 13,800 -1,200 Descending San Juan Center
12:55PM 18.4833 -63.7333 143° Southeast 330 380 12,700 -1,200 Descending San Juan Center
12:56PM 18.4167 -63.6833 145° Southeast 310 357 11,500 -1,200 Descending San Juan Center